Time;durP1;ratioP1;P1;durP2;ratioP2;P2;SDS_P1;SDS_P2;PMS_P1;PMS_P2;Temp;Humidity;BMP_temperature;BMP_pressure;BME280_temperature;BME280_humidity;BME280_pressure;Samples;Min_cycle;Max_cycle;Signal;HPM_P1;HPM_P2
2023/02/17 00:01:17;;;;;;;4.87;3.03;;;;;;;7.51;64.74;96364.25;5031831;28;20614;-80
2023/02/17 00:03:46;;;;;;;5.23;3.20;;;;;;;7.55;64.27;96370.88;5011555;28;20218;-80
2023/02/17 00:06:13;;;;;;;4.57;3.27;;;;;;;7.57;64.47;96363.81;5019512;28;20202;-80
2023/02/17 00:08:38;;;;;;;5.53;3.43;;;;;;;7.52;64.92;96373.69;5014338;28;20211;-78
2023/02/17 00:11:03;;;;;;;6.07;3.77;;;;;;;7.45;65.07;96372.47;5016449;28;20187;-78
2023/02/17 00:13:28;;;;;;;4.40;3.23;;;;;;;7.50;64.69;96367.78;5022551;28;20236;-80
2023/02/17 00:15:54;;;;;;;5.30;3.13;;;;;;;7.44;64.71;96360.47;5025948;28;20186;-80
2023/02/17 00:18:19;;;;;;;6.17;3.83;;;;;;;7.27;65.54;96365.06;5014963;28;20247;-81
2023/02/17 00:20:44;;;;;;;6.83;3.93;;;;;;;7.28;65.39;96352.97;5025477;28;20197;-80
2023/02/17 00:23:10;;;;;;;7.67;4.10;;;;;;;7.25;65.95;96363.53;5012666;28;20744;-81
2023/02/17 00:25:36;;;;;;;7.97;3.93;;;;;;;7.21;65.61;96362.91;5010398;28;20183;-81
2023/02/17 00:28:02;;;;;;;7.70;3.90;;;;;;;7.15;66.07;96349.59;4998694;28;20183;-80
2023/02/17 00:30:27;;;;;;;5.13;3.60;;;;;;;7.13;66.07;96354.03;5004787;28;20245;-80
2023/02/17 00:32:52;;;;;;;6.27;3.37;;;;;;;7.07;65.99;96361.28;5024016;28;20210;-80
2023/02/17 00:35:17;;;;;;;7.87;4.03;;;;;;;7.14;66.10;96350.50;5010468;28;20178;-80
2023/02/17 00:37:44;;;;;;;7.40;3.90;;;;;;;7.07;66.35;96348.38;5017519;28;20194;-80
2023/02/17 00:40:10;;;;;;;7.10;3.50;;;;;;;7.18;65.97;96346.81;5019341;28;20198;-80
2023/02/17 00:42:36;;;;;;;4.53;3.73;;;;;;;7.14;66.06;96346.19;5015931;28;20218;-81
2023/02/17 00:45:01;;;;;;;5.63;4.00;;;;;;;7.12;66.01;96344.63;5013850;28;20240;-80
2023/02/17 00:47:26;;;;;;;6.53;3.70;;;;;;;7.21;65.95;96338.81;5027106;28;20238;-79
2023/02/17 00:49:52;;;;;;;7.27;4.00;;;;;;;7.12;66.14;96342.88;5005999;28;20195;-81
2023/02/17 00:52:17;;;;;;;8.90;4.03;;;;;;;7.23;65.92;96332.63;5029730;28;20182;-81
2023/02/17 00:54:42;;;;;;;4.60;3.43;;;;;;;7.22;65.67;96323.22;5008340;28;20223;-80
2023/02/17 00:57:07;;;;;;;4.77;2.90;;;;;;;7.21;65.96;96331.91;5019830;28;20241;-80
2023/02/17 00:59:34;;;;;;;3.03;2.43;;;;;;;7.32;65.13;96333.72;5014619;28;20652;-80
2023/02/17 01:01:59;;;;;;;5.47;3.50;;;;;;;7.35;65.33;96330.94;5012143;28;20603;-80
2023/02/17 01:04:24;;;;;;;4.17;3.33;;;;;;;7.37;65.03;96344.56;5002404;28;20207;-79
2023/02/17 01:06:50;;;;;;;3.97;2.70;;;;;;;7.39;64.91;96351.28;5000209;28;20187;-79
2023/02/17 01:09:15;;;;;;;4.03;3.13;;;;;;;7.35;64.91;96339.53;4996244;28;20553;-80
2023/02/17 01:11:40;;;;;;;4.03;3.23;;;;;;;7.34;65.08;96345.63;5019285;28;20175;-79
2023/02/17 01:14:06;;;;;;;4.47;2.53;;;;;;;7.32;65.23;96344.06;5022260;28;20261;-80
2023/02/17 01:16:39;;;;;;;3.70;2.77;;;;;;;7.38;65.11;96354.78;5027413;28;20187;-81
2023/02/17 01:19:07;;;;;;;5.33;2.40;;;;;;;7.31;65.52;96352.75;5002375;28;20639;-80
2023/02/17 01:21:33;;;;;;;3.53;2.50;;;;;;;7.37;65.76;96345.41;5020272;28;20175;-80
2023/02/17 01:24:01;;;;;;;4.97;2.87;;;;;;;7.46;65.59;96343.09;5011330;28;20245;-80
2023/02/17 01:26:27;;;;;;;6.07;3.00;;;;;;;7.58;65.44;96344.78;4995351;28;20655;-80
2023/02/17 01:28:53;;;;;;;3.40;3.00;;;;;;;7.66;65.39;96339.91;5001055;28;20217;-79
2023/02/17 01:31:20;;;;;;;3.93;2.70;;;;;;;7.78;64.83;96333.03;5014447;28;20741;-80
2023/02/17 01:33:45;;;;;;;5.73;2.87;;;;;;;7.86;64.95;96323.78;5013399;28;20570;-80
2023/02/17 01:36:12;;;;;;;4.77;2.60;;;;;;;7.94;64.39;96325.78;5021295;28;20201;-79
2023/02/17 01:38:38;;;;;;;3.80;2.50;;;;;;;7.92;64.00;96328.50;5003172;28;20183;-79
2023/02/17 01:41:04;;;;;;;3.47;2.40;;;;;;;7.86;64.75;96322.94;5025268;28;20193;-79
2023/02/17 01:43:30;;;;;;;4.63;2.73;;;;;;;7.98;64.74;96331.59;5009472;28;20226;-80
2023/02/17 01:45:58;;;;;;;4.80;2.47;;;;;;;8.04;64.55;96329.38;5032490;28;20186;-80
2023/02/17 01:48:51;;;;;;;3.73;2.47;;;;;;;8.09;64.45;96322.09;5015460;28;20194;-79
2023/02/17 01:51:25;;;;;;;4.90;2.63;;;;;;;8.17;64.71;96318.94;5025168;28;20281;-79
2023/02/17 01:53:56;;;;;;;3.77;2.37;;;;;;;8.28;64.14;96324.13;5026541;28;20237;-79
2023/02/17 01:56:21;;;;;;;4.47;2.43;;;;;;;8.21;64.25;96316.00;5023850;28;20245;-79
2023/02/17 01:58:56;;;;;;;5.03;2.43;;;;;;;8.32;63.92;96317.81;5001727;28;20186;-79
2023/02/17 02:01:22;;;;;;;4.63;2.40;;;;;;;8.43;63.86;96322.19;5016640;28;20178;-80
2023/02/17 02:03:48;;;;;;;7.17;2.30;;;;;;;8.46;63.32;96315.00;5021682;28;20210;-80
2023/02/17 02:06:17;;;;;;;4.27;2.40;;;;;;;8.50;63.46;96307.84;5017177;28;20202;-81
2023/02/17 02:09:01;;;;;;;3.23;2.20;;;;;;;8.47;63.81;96311.47;5041079;28;20220;-80
2023/02/17 02:11:26;;;;;;;4.27;2.90;;;;;;;8.38;63.84;96316.53;5028975;28;20598;-79
2023/02/17 02:13:52;;;;;;;4.03;2.63;;;;;;;8.42;63.62;96299.84;5028628;28;20203;-81
2023/02/17 02:16:22;;;;;;;3.47;2.30;;;;;;;8.39;63.81;96306.09;5015238;28;20187;-80
2023/02/17 02:18:50;;;;;;;4.77;3.40;;;;;;;8.35;64.08;96296.06;5002266;28;20555;-81
2023/02/17 02:21:43;;;;;;;5.53;3.10;;;;;;;8.41;64.00;96295.63;5025058;28;20179;-81
2023/02/17 02:24:32;;;;;;;5.43;3.10;;;;;;;8.49;63.64;96295.84;5033174;28;20236;-79
2023/02/17 02:27:11;;;;;;;9.27;3.30;;;;;;;8.48;63.99;96299.34;5033166;28;20214;-80
2023/02/17 02:29:57;;;;;;;6.43;3.60;;;;;;;8.45;64.06;96302.19;5031190;28;20210;-80
2023/02/17 02:32:48;;;;;;;6.47;3.50;;;;;;;8.41;64.14;96303.38;5030448;28;20179;-80
2023/02/17 02:35:36;;;;;;;6.37;3.50;;;;;;;8.45;63.90;96302.19;5032356;28;20183;-81
2023/02/17 02:38:06;;;;;;;4.87;3.27;;;;;;;8.23;64.58;96303.78;5010909;28;20749;-81
2023/02/17 02:40:35;;;;;;;5.20;2.67;;;;;;;8.33;64.69;96300.50;5014476;28;20202;-81
2023/02/17 02:43:01;;;;;;;4.40;2.97;;;;;;;8.33;64.83;96295.34;5016589;28;20310;-81
2023/02/17 02:45:26;;;;;;;5.80;2.90;;;;;;;8.27;65.81;96285.44;5020150;28;20217;-81
2023/02/17 02:47:54;;;;;;;4.57;2.93;;;;;;;8.46;66.20;96283.13;5026242;28;20187;-81
2023/02/17 02:50:35;;;;;;;4.63;3.17;;;;;;;8.47;66.35;96279.59;5015340;28;20643;-80
2023/02/17 02:53:19;;;;;;;6.10;3.50;;;;;;;8.61;65.81;96281.16;5015481;28;20214;-80
2023/02/17 02:55:55;;;;;;;3.77;3.10;;;;;;;8.62;65.94;96281.03;5022512;28;20281;-81
2023/02/17 02:58:37;;;;;;;6.20;3.10;;;;;;;8.56;66.93;96267.72;5013773;28;20190;-80
2023/02/17 03:01:12;;;;;;;5.93;3.40;;;;;;;8.61;66.65;96270.78;5033152;28;20343;-80
2023/02/17 03:03:55;;;;;;;4.57;3.00;;;;;;;8.65;66.54;96254.88;5011095;28;20222;-81
2023/02/17 03:06:26;;;;;;;7.00;3.20;;;;;;;8.70;66.23;96260.53;5029407;28;20243;-80
2023/02/17 03:09:03;;;;;;;6.83;2.97;;;;;;;8.67;66.49;96265.97;5032793;28;20321;-80
2023/02/17 03:11:31;;;;;;;5.97;3.67;;;;;;;8.61;66.59;96265.63;5021189;28;20562;-80
2023/02/17 03:14:03;;;;;;;4.30;3.07;;;;;;;8.67;66.22;96265.97;5006924;28;20203;-81
2023/02/17 03:16:29;;;;;;;7.70;3.40;;;;;;;8.63;66.23;96280.06;5032999;28;20190;-80
2023/02/17 03:18:54;;;;;;;6.17;2.93;;;;;;;8.60;66.23;96269.97;5010339;28;20195;-81
2023/02/17 03:21:20;;;;;;;6.53;3.57;;;;;;;8.58;66.94;96273.63;5007699;28;20273;-80
2023/02/17 03:23:45;;;;;;;5.00;3.17;;;;;;;8.59;66.92;96270.91;5012901;28;20229;-81
2023/02/17 03:26:11;;;;;;;4.60;2.70;;;;;;;8.49;68.68;96273.38;5032414;28;20190;-80
2023/02/17 03:28:36;;;;;;;6.00;3.03;;;;;;;8.49;68.88;96275.97;5010849;28;20194;-80
2023/02/17 03:31:01;;;;;;;4.40;3.30;;;;;;;8.52;69.14;96283.50;5005122;28;20186;-80
2023/02/17 03:33:27;;;;;;;6.10;3.20;;;;;;;8.49;70.26;96269.97;5014366;28;20230;-80
2023/02/17 03:35:52;;;;;;;3.70;2.73;;;;;;;8.56;70.65;96278.06;5015310;28;20544;-79
2023/02/17 03:38:17;;;;;;;5.07;2.90;;;;;;;8.48;71.43;96268.28;5006119;28;20194;-80
2023/02/17 03:40:43;;;;;;;7.13;3.50;;;;;;;8.30;73.32;96267.06;5012022;28;20194;-80
2023/02/17 03:43:08;;;;;;;5.63;3.17;;;;;;;8.26;75.88;96276.03;5015404;28;20229;-81
2023/02/17 03:45:35;;;;;;;5.63;3.43;;;;;;;8.24;77.23;96270.97;5009941;28;20194;-81
2023/02/17 03:48:01;;;;;;;5.70;3.30;;;;;;;8.28;77.47;96272.38;5013969;28;20203;-80
2023/02/17 03:50:26;;;;;;;4.83;3.10;;;;;;;8.33;76.83;96275.44;5015305;28;20282;-79
2023/02/17 03:52:51;;;;;;;5.33;2.90;;;;;;;8.33;76.43;96270.28;4999755;28;20219;-80
2023/02/17 03:55:19;;;;;;;6.50;3.90;;;;;;;8.36;76.25;96275.25;5014723;28;20272;-80
2023/02/17 03:57:45;;;;;;;5.97;3.10;;;;;;;8.33;76.09;96270.28;5015641;28;20194;-80
2023/02/17 04:00:11;;;;;;;5.03;3.40;;;;;;;8.33;75.75;96272.03;5031065;28;20190;-79
2023/02/17 04:02:36;;;;;;;3.40;2.60;;;;;;;8.23;76.05;96279.69;5027685;28;20206;-79
2023/02/17 04:05:02;;;;;;;4.77;3.30;;;;;;;8.43;74.86;96276.44;5020362;28;20978;-80
2023/02/17 04:07:27;;;;;;;3.67;2.87;;;;;;;8.45;75.17;96284.06;5026982;28;20175;-80
2023/02/17 04:09:52;;;;;;;4.20;2.70;;;;;;;8.30;76.18;96280.84;5028996;28;20312;-80
2023/02/17 04:12:18;;;;;;;5.37;2.70;;;;;;;8.40;76.18;96275.84;5014094;28;20532;-80
2023/02/17 04:14:43;;;;;;;4.87;2.90;;;;;;;8.27;77.77;96272.50;5018135;28;20215;-80
2023/02/17 04:17:08;;;;;;;3.43;2.43;;;;;;;8.37;77.61;96279.47;5004387;28;20194;-80
2023/02/17 04:19:34;;;;;;;5.27;2.60;;;;;;;8.55;76.82;96282.44;5010103;28;20265;-80
2023/02/17 04:21:59;;;;;;;3.77;2.40;;;;;;;8.49;76.94;96275.16;5021427;28;20190;-79
2023/02/17 04:24:24;;;;;;;5.53;2.67;;;;;;;8.41;77.28;96280.91;5014882;28;20211;-80
2023/02/17 04:26:50;;;;;;;4.33;2.33;;;;;;;8.32;79.15;96278.97;5013983;28;20188;-80
2023/02/17 04:29:15;;;;;;;5.97;2.40;;;;;;;8.47;78.31;96272.66;5003608;28;20190;-80
2023/02/17 04:31:40;;;;;;;6.43;2.30;;;;;;;8.60;78.60;96271.72;5009520;28;20182;-80
2023/02/17 04:34:05;;;;;;;5.57;2.43;;;;;;;8.48;79.37;96268.28;5012219;28;20209;-79
2023/02/17 04:36:31;;;;;;;3.10;2.33;;;;;;;8.48;79.39;96260.53;5012899;28;20729;-79
2023/02/17 04:38:56;;;;;;;2.70;2.03;;;;;;;8.41;81.09;96261.97;5023449;28;20262;-80
2023/02/17 04:41:21;;;;;;;3.40;2.60;;;;;;;8.27;82.83;96264.72;5022928;28;20187;-79
2023/02/17 04:43:46;;;;;;;4.70;2.60;;;;;;;8.38;81.84;96264.75;5022466;28;20663;-80
2023/02/17 04:46:12;;;;;;;3.00;2.20;;;;;;;8.39;81.86;96267.25;5030005;28;20190;-80
2023/02/17 04:48:37;;;;;;;5.43;2.40;;;;;;;8.47;81.14;96264.88;5025154;28;20218;-79
2023/02/17 04:51:03;;;;;;;2.50;2.30;;;;;;;8.21;82.06;96258.25;5030104;28;20269;-79
2023/02/17 04:53:28;;;;;;;3.67;2.70;;;;;;;8.40;80.80;96255.16;5009462;28;20847;-80
2023/02/17 04:55:53;;;;;;;4.47;2.63;;;;;;;8.23;81.10;96254.63;5004455;28;20187;-80
2023/02/17 04:58:19;;;;;;;3.00;2.20;;;;;;;8.29;80.43;96257.66;4999825;28;20218;-80
2023/02/17 05:00:46;;;;;;;4.63;2.37;;;;;;;8.36;79.92;96251.13;5013199;28;20253;-78
2023/02/17 05:03:11;;;;;;;3.67;2.53;;;;;;;8.38;79.71;96246.66;5014182;28;20686;-79
2023/02/17 05:05:37;;;;;;;3.60;2.83;;;;;;;8.35;80.48;96239.13;5025306;28;20232;-78
2023/02/17 05:08:02;;;;;;;3.73;2.80;;;;;;;8.47;79.24;96244.19;5027181;28;20194;-79
2023/02/17 05:10:28;;;;;;;3.83;2.83;;;;;;;8.44;79.20;96243.59;5000813;28;20195;-78
2023/02/17 05:12:53;;;;;;;3.27;2.63;;;;;;;8.51;78.53;96242.19;5006467;28;20218;-80
2023/02/17 05:15:19;;;;;;;3.77;2.47;;;;;;;8.50;78.77;96243.97;5027620;28;20193;-79
2023/02/17 05:17:44;;;;;;;3.77;2.60;;;;;;;8.60;78.63;96253.63;5029464;28;20295;-79
2023/02/17 05:20:10;;;;;;;2.80;2.30;;;;;;;8.51;78.93;96250.78;5013650;28;20557;-79
2023/02/17 05:22:35;;;;;;;3.43;2.30;;;;;;;8.56;78.49;96254.78;5014165;28;20252;-80
2023/02/17 05:25:01;;;;;;;5.90;2.50;;;;;;;8.57;79.05;96257.28;5012796;28;20282;-80
2023/02/17 05:27:26;;;;;;;3.70;2.80;;;;;;;8.49;79.76;96264.78;5006386;28;20190;-79
2023/02/17 05:29:51;;;;;;;5.93;2.57;;;;;;;8.55;79.45;96268.66;5025231;28;20264;-81
2023/02/17 05:32:17;;;;;;;2.80;2.33;;;;;;;8.50;79.99;96266.44;5001771;28;20191;-80
2023/02/17 05:34:42;;;;;;;4.00;2.33;;;;;;;8.55;80.65;96271.25;4995432;28;20207;-79
2023/02/17 05:37:07;;;;;;;4.03;2.60;;;;;;;8.51;79.92;96268.09;5012964;28;20186;-79
2023/02/17 05:39:33;;;;;;;4.07;2.50;;;;;;;8.60;80.09;96261.38;5024239;28;20190;-79
2023/02/17 05:41:58;;;;;;;3.40;2.30;;;;;;;8.49;80.79;96267.38;5012123;28;20558;-79
2023/02/17 05:44:23;;;;;;;3.27;2.57;;;;;;;8.56;80.88;96268.53;5008867;28;20222;-79
2023/02/17 05:46:49;;;;;;;5.93;2.80;;;;;;;8.64;80.07;96273.94;5003257;28;20187;-79
2023/02/17 05:49:14;;;;;;;5.30;3.20;;;;;;;8.61;80.70;96271.63;5020620;28;20700;-80
2023/02/17 05:51:39;;;;;;;3.67;2.60;;;;;;;8.55;81.82;96264.31;5012255;28;20183;-79
2023/02/17 05:54:05;;;;;;;3.40;2.70;;;;;;;8.56;82.11;96271.13;5005382;28;20218;-80
2023/02/17 05:56:30;;;;;;;3.77;2.37;;;;;;;8.62;81.74;96273.25;5022633;28;20277;-80
2023/02/17 05:58:56;;;;;;;3.40;2.40;;;;;;;8.63;82.13;96267.13;5013692;28;20191;-80
2023/02/17 06:01:21;;;;;;;2.73;2.43;;;;;;;8.68;81.64;96282.31;5025851;28;20194;-80
2023/02/17 06:03:46;;;;;;;4.60;3.60;;;;;;;8.67;81.75;96280.69;5020006;28;20312;-81
2023/02/17 06:06:12;;;;;;;5.13;4.03;;;;;;;8.41;83.96;96275.72;5014075;28;20703;-80
2023/02/17 06:08:39;;;;;;;5.90;4.37;;;;;;;8.48;83.82;96279.50;5011357;28;20210;-80
2023/02/17 06:11:04;;;;;;;3.67;3.37;;;;;;;8.52;83.57;96278.31;5000900;28;20274;-79
2023/02/17 06:13:30;;;;;;;5.47;2.77;;;;;;;8.47;84.19;96288.19;5004542;28;20213;-80
2023/02/17 06:15:55;;;;;;;3.73;3.27;;;;;;;8.47;84.08;96284.78;5010672;28;20237;-79
2023/02/17 06:18:20;;;;;;;3.40;2.70;;;;;;;8.34;84.75;96284.03;5025966;28;20218;-79
2023/02/17 06:20:46;;;;;;;4.97;3.73;;;;;;;8.27;86.05;96277.66;5019847;28;20229;-79
2023/02/17 06:23:11;;;;;;;3.77;3.20;;;;;;;8.41;84.54;96291.25;5017629;28;20226;-79
2023/02/17 06:25:36;;;;;;;4.90;3.40;;;;;;;8.22;86.14;96285.78;5026038;28;20191;-79
2023/02/17 06:28:02;;;;;;;5.60;2.80;;;;;;;8.30;86.65;96298.13;4999347;28;20191;-80
2023/02/17 06:30:27;;;;;;;3.30;2.80;;;;;;;8.20;87.54;96288.47;5012705;28;20190;-80
2023/02/17 06:32:52;;;;;;;3.77;2.50;;;;;;;8.28;87.83;96287.91;5015857;28;20210;-80
2023/02/17 06:35:18;;;;;;;8.80;4.80;;;;;;;8.40;86.28;96288.78;5028787;28;20214;-80
2023/02/17 06:37:43;;;;;;;10.43;8.80;;;;;;;8.36;86.17;96298.53;5023354;28;20195;-81
2023/02/17 06:40:09;;;;;;;7.47;4.43;;;;;;;8.30;87.02;96288.59;5018281;28;20191;-80
2023/02/17 06:42:35;;;;;;;4.30;3.00;;;;;;;8.11;89.07;96294.34;5030673;28;20305;-79
2023/02/17 06:45:02;;;;;;;3.93;3.10;;;;;;;8.23;88.94;96300.38;5019254;28;20247;-79
2023/02/17 06:47:27;;;;;;;3.03;2.67;;;;;;;8.30;88.92;96305.91;5013091;28;20183;-80
2023/02/17 06:49:52;;;;;;;3.50;2.40;;;;;;;8.30;88.90;96301.53;5019055;28;20187;-79
2023/02/17 06:52:18;;;;;;;3.60;2.57;;;;;;;8.20;90.14;96301.41;5010429;28;20195;-79
2023/02/17 06:54:43;;;;;;;4.10;2.47;;;;;;;8.26;90.34;96304.50;5007127;28;20222;-80
2023/02/17 06:57:08;;;;;;;2.33;1.93;;;;;;;8.33;90.39;96303.09;5024204;28;20757;-79
2023/02/17 06:59:33;;;;;;;2.20;2.00;;;;;;;8.39;89.81;96307.81;5003915;28;20218;-80
2023/02/17 07:01:59;;;;;;;3.50;1.80;;;;;;;8.31;91.03;96313.56;5002592;28;20190;-80
2023/02/17 07:04:24;;;;;;;2.63;1.90;;;;;;;8.41;90.07;96311.97;5023915;28;20697;-79
2023/02/17 07:06:49;;;;;;;1.93;1.73;;;;;;;8.32;91.91;96306.63;5007896;28;20191;-80
2023/02/17 07:09:15;;;;;;;2.70;1.80;;;;;;;8.47;90.20;96313.25;5017987;28;20182;-79
2023/02/17 07:11:41;;;;;;;3.43;1.93;;;;;;;8.33;92.09;96323.78;5013407;28;20228;-79
2023/02/17 07:14:07;;;;;;;3.93;1.80;;;;;;;8.60;89.81;96324.34;5038167;28;20203;-80
2023/02/17 07:16:32;;;;;;;3.53;1.80;;;;;;;8.51;90.23;96335.38;5040790;28;20189;-80
2023/02/17 07:18:57;;;;;;;2.23;1.70;;;;;;;8.56;89.82;96329.84;5031643;28;20847;-78
2023/02/17 07:21:23;;;;;;;1.50;1.40;;;;;;;8.70;89.44;96333.03;5034013;28;20238;-79
2023/02/17 07:23:48;;;;;;;1.70;1.33;;;;;;;8.50;92.06;96324.22;5023874;28;20226;-79
2023/02/17 07:26:14;;;;;;;1.67;1.50;;;;;;;8.82;89.11;96333.03;5021576;28;20621;-79
2023/02/17 07:28:39;;;;;;;2.53;1.50;;;;;;;8.70;90.13;96330.47;5032425;28;20195;-80
2023/02/17 07:31:10;;;;;;;1.40;1.30;;;;;;;8.73;90.75;96334.56;5009951;28;20582;-79
2023/02/17 07:33:36;;;;;;;1.47;1.20;;;;;;;8.81;90.05;96332.22;5015550;28;20202;-79
2023/02/17 07:36:06;;;;;;;2.40;1.10;;;;;;;8.99;89.24;96329.97;5020613;28;20183;-78
2023/02/17 07:38:31;;;;;;;1.20;1.10;;;;;;;8.92;89.48;96331.38;5015141;28;20206;-80
2023/02/17 07:41:03;;;;;;;0.97;0.97;;;;;;;8.98;89.46;96325.75;5023663;28;20238;-79
2023/02/17 07:43:28;;;;;;;1.17;1.07;;;;;;;8.86;91.00;96330.13;5004328;28;20210;-79
2023/02/17 07:45:53;;;;;;;1.30;1.00;;;;;;;9.22;88.58;96346.34;5033027;28;20191;-78
2023/02/17 07:48:19;;;;;;;2.03;1.13;;;;;;;9.30;88.09;96339.63;5023195;28;20194;-79
2023/02/17 07:50:44;;;;;;;1.40;1.20;;;;;;;9.19;88.56;96351.75;5015783;28;20191;-79
2023/02/17 07:53:09;;;;;;;1.80;1.20;;;;;;;9.40;87.33;96341.50;5018695;28;20222;-79
2023/02/17 07:55:35;;;;;;;1.03;1.00;;;;;;;9.33;88.06;96343.72;5006992;28;20209;-79
2023/02/17 07:58:00;;;;;;;1.50;1.30;;;;;;;9.45;86.99;96352.31;5019248;28;20211;-79
2023/02/17 08:00:25;;;;;;;1.87;1.40;;;;;;;9.32;88.31;96358.47;5019919;28;20202;-79
2023/02/17 08:02:50;;;;;;;2.60;1.60;;;;;;;9.55;86.99;96363.63;5006456;28;20211;-79
2023/02/17 08:05:16;;;;;;;5.63;4.50;;;;;;;9.65;86.66;96361.94;5004351;28;20701;-79
2023/02/17 08:07:41;;;;;;;5.07;4.53;;;;;;;9.73;86.26;96361.34;5028008;28;20190;-79
2023/02/17 08:15:32;;;;;;;0.93;0.93;;;;;;;9.60;87.48;96361.47;5022698;28;20559;-78
2023/02/17 08:17:59;;;;;;;1.43;1.07;;;;;;;9.72;86.72;96368.28;5023270;28;20205;-79
2023/02/17 08:20:24;;;;;;;2.07;0.90;;;;;;;9.74;86.68;96369.00;5022251;28;20217;-79
2023/02/17 08:22:50;;;;;;;1.20;1.10;;;;;;;9.73;86.68;96367.34;5010770;28;20597;-79
2023/02/17 08:25:15;;;;;;;0.80;0.80;;;;;;;9.79;86.58;96366.84;5022505;28;20187;-79
2023/02/17 08:27:40;;;;;;;1.43;1.10;;;;;;;9.58;87.85;96368.56;5025062;28;20182;-80
2023/02/17 08:30:06;;;;;;;3.30;1.20;;;;;;;9.62;87.71;96370.75;5013724;28;20205;-79
2023/02/17 08:32:31;;;;;;;1.30;0.93;;;;;;;9.60;87.29;96369.25;5022163;28;20206;-78
2023/02/17 08:34:57;;;;;;;1.80;1.23;;;;;;;9.62;87.79;96375.13;5017884;28;20187;-79
2023/02/17 08:37:22;;;;;;;1.30;1.20;;;;;;;9.61;86.97;96368.31;5024733;28;20218;-79
2023/02/17 08:39:47;;;;;;;1.30;1.10;;;;;;;9.71;86.35;96369.22;5029621;28;20186;-79
2023/02/17 08:42:13;;;;;;;1.47;1.30;;;;;;;9.62;86.90;96359.56;5023018;28;20201;-79
2023/02/17 08:44:38;;;;;;;1.37;1.00;;;;;;;9.61;87.12;96363.94;5006948;28;20687;-79
2023/02/17 08:47:05;;;;;;;1.07;0.90;;;;;;;9.53;87.40;96362.91;5020561;28;20325;-79
2023/02/17 08:49:31;;;;;;;1.30;1.00;;;;;;;9.68;87.07;96351.31;5010658;28;20179;-79
2023/02/17 08:51:57;;;;;;;2.70;1.13;;;;;;;9.86;86.04;96356.78;5014680;28;20197;-79
2023/02/17 08:54:22;;;;;;;2.30;1.30;;;;;;;9.83;86.14;96352.69;5015409;28;20305;-78
2023/02/17 08:56:48;;;;;;;3.37;1.80;;;;;;;9.74;86.88;96348.25;5005459;28;20218;-79
2023/02/17 08:59:13;;;;;;;1.50;0.80;;;;;;;9.61;87.75;96339.78;5018842;28;20282;-79
2023/02/17 09:01:40;;;;;;;1.50;0.60;;;;;;;9.39;88.94;96338.06;5024341;28;20236;-79
2023/02/17 09:04:07;;;;;;;1.03;0.97;;;;;;;9.85;86.86;96330.03;5015263;28;20618;-79
2023/02/17 09:06:36;;;;;;;1.33;0.87;;;;;;;9.90;86.53;96332.28;5025150;28;20691;-79
2023/02/17 09:09:02;;;;;;;0.80;0.80;;;;;;;9.93;86.07;96335.44;5022100;28;20199;-79
2023/02/17 09:11:28;;;;;;;1.40;0.87;;;;;;;10.14;85.55;96345.81;5023136;28;20567;-79
2023/02/17 09:13:53;;;;;;;0.93;0.90;;;;;;;10.30;84.16;96349.78;5006168;28;20213;-78
2023/02/17 09:16:20;;;;;;;0.80;0.80;;;;;;;10.30;83.97;96355.81;5024864;28;20278;-78
2023/02/17 09:18:45;;;;;;;0.87;0.80;;;;;;;10.26;83.82;96349.25;5015783;28;20183;-79
2023/02/17 09:21:12;;;;;;;1.10;0.90;;;;;;;10.53;82.95;96347.91;5006676;28;20191;-79
2023/02/17 09:23:39;;;;;;;3.17;2.33;;;;;;;10.51;82.29;96353.19;5001619;28;20214;-78
2023/02/17 09:26:09;;;;;;;2.27;1.63;;;;;;;10.26;84.13;96358.78;5011111;28;20281;-78
2023/02/17 09:28:35;;;;;;;1.07;0.97;;;;;;;10.39;83.34;96357.66;5023303;28;20226;-79
2023/02/17 09:31:13;;;;;;;8.07;7.37;;;;;;;10.69;81.66;96363.84;5028513;28;20179;-78
2023/02/17 09:33:40;;;;;;;4.60;2.93;;;;;;;10.63;81.92;96347.00;5014721;28;20206;-79
2023/02/17 09:36:06;;;;;;;1.33;1.17;;;;;;;11.01;80.82;96342.94;5004938;28;20218;-78
2023/02/17 09:38:32;;;;;;;1.57;1.13;;;;;;;11.16;79.34;96354.63;5022257;28;20183;-78
2023/02/17 09:41:03;;;;;;;1.10;0.80;;;;;;;11.32;79.22;96356.75;5003656;28;20186;-78
2023/02/17 09:43:29;;;;;;;1.63;0.73;;;;;;;10.81;81.28;96360.22;5025695;28;20226;-78
2023/02/17 09:46:04;;;;;;;0.93;0.87;;;;;;;11.15;79.80;96367.78;5007739;28;20198;-79
2023/02/17 09:48:30;;;;;;;0.70;0.70;;;;;;;11.56;77.66;96358.97;5005127;28;20189;-79
2023/02/17 09:50:59;;;;;;;0.80;0.80;;;;;;;11.44;78.07;96350.47;5013009;28;20562;-79
2023/02/17 09:53:40;;;;;;;0.70;0.70;;;;;;;11.82;76.39;96361.94;5022011;28;20306;-79
2023/02/17 09:56:10;;;;;;;1.40;1.23;;;;;;;11.50;78.16;96359.53;5021827;28;20187;-78
2023/02/17 09:58:48;;;;;;;1.50;1.40;;;;;;;11.41;79.00;96357.72;5014395;28;20183;-79
2023/02/17 10:01:20;;;;;;;0.83;0.73;;;;;;;11.64;77.37;96365.16;5008163;28;20210;-79
2023/02/17 10:04:03;;;;;;;0.70;0.70;;;;;;;11.62;77.81;96369.69;5011902;28;20695;-78
2023/02/17 10:06:35;;;;;;;0.70;0.63;;;;;;;11.43;78.34;96392.22;5023989;28;20647;-78
2023/02/17 10:09:10;;;;;;;0.57;0.57;;;;;;;11.63;78.42;96388.72;5008655;28;20198;-78
2023/02/17 10:11:45;;;;;;;0.60;0.60;;;;;;;11.74;77.79;96383.38;5015932;28;20554;-79
2023/02/17 10:14:28;;;;;;;2.67;0.53;;;;;;;11.62;78.98;96372.28;5015892;28;20230;-78
2023/02/17 10:17:02;;;;;;;1.30;0.70;;;;;;;11.91;77.92;96374.13;5018669;28;20178;-79
2023/02/17 10:19:31;;;;;;;1.30;0.50;;;;;;;12.08;77.38;96360.44;5027113;28;20609;-79
2023/02/17 10:22:11;;;;;;;1.20;0.70;;;;;;;11.99;77.56;96348.25;5012021;28;21003;-78
2023/02/17 10:24:37;;;;;;;1.20;0.67;;;;;;;12.38;75.89;96349.06;5022328;28;20297;-78
2023/02/17 10:27:21;;;;;;;2.30;0.67;;;;;;;12.13;76.67;96360.03;5030908;28;20562;-78
2023/02/17 10:29:52;;;;;;;0.83;0.57;;;;;;;11.84;78.10;96367.84;5027828;28;20187;-78
2023/02/17 10:32:22;;;;;;;0.97;0.53;;;;;;;11.93;78.50;96358.38;5007683;28;20183;-77
2023/02/17 10:35:13;;;;;;;0.67;0.60;;;;;;;12.15;77.11;96361.53;5032418;28;20214;-78
2023/02/17 10:37:49;;;;;;;0.57;0.57;;;;;;;12.00;78.01;96365.50;5007551;28;20249;-78
2023/02/17 10:40:21;;;;;;;0.70;0.70;;;;;;;12.11;77.90;96367.19;5015173;28;20198;-78
2023/02/17 10:42:48;;;;;;;1.83;1.00;;;;;;;12.09;78.10;96375.09;5030538;28;20213;-79
2023/02/17 10:45:30;;;;;;;1.20;0.90;;;;;;;12.00;78.26;96364.69;5013278;28;20400;-77
2023/02/17 10:48:00;;;;;;;0.70;0.70;;;;;;;11.83;79.01;96356.59;5023475;28;20210;-78
2023/02/17 10:50:26;;;;;;;0.60;0.50;;;;;;;11.75;79.90;96355.59;5018055;28;20202;-79
2023/02/17 10:52:52;;;;;;;0.63;0.60;;;;;;;11.91;78.90;96358.50;5028832;28;20214;-79
2023/02/17 10:55:38;;;;;;;0.63;0.60;;;;;;;12.19;77.32;96368.13;5018718;28;20231;-80
2023/02/17 10:58:10;;;;;;;1.60;1.13;;;;;;;11.89;79.19;96361.25;5031719;28;20662;-80
2023/02/17 11:00:36;;;;;;;1.07;0.97;;;;;;;12.12;78.90;96367.03;5026901;28;20198;-80
2023/02/17 11:03:01;;;;;;;0.87;0.60;;;;;;;11.73;80.21;96375.72;5016272;28;20207;-80
2023/02/17 11:05:29;;;;;;;3.57;1.37;;;;;;;11.97;79.38;96371.00;5017556;28;20182;-80
2023/02/17 11:07:58;;;;;;;2.10;0.70;;;;;;;12.05;78.99;96368.53;5006700;28;20190;-80
2023/02/17 11:10:39;;;;;;;0.97;0.63;;;;;;;11.80;80.25;96375.06;5009091;28;20185;-80
2023/02/17 11:13:35;;;;;;;0.73;0.70;;;;;;;12.14;78.11;96374.69;5029854;28;20202;-78
2023/02/17 11:16:01;;;;;;;0.90;0.90;;;;;;;12.44;76.86;96384.13;5017183;28;20194;-80
2023/02/17 11:18:35;;;;;;;0.90;0.90;;;;;;;12.01;78.84;96381.94;5009471;28;20269;-79
2023/02/17 11:21:05;;;;;;;1.17;0.80;;;;;;;12.26;77.22;96367.56;5006685;28;20555;-77
2023/02/17 11:23:30;;;;;;;0.70;0.70;;;;;;;12.12;77.65;96364.44;5028212;28;20211;-76
2023/02/17 11:26:06;;;;;;;1.07;0.80;;;;;;;12.29;77.94;96369.91;5029239;28;20182;-77
2023/02/17 11:28:32;;;;;;;0.50;0.50;;;;;;;12.27;77.60;96362.22;5014037;28;20661;-76
2023/02/17 11:30:58;;;;;;;1.27;0.50;;;;;;;11.89;78.78;96368.25;5010616;28;20179;-80
2023/02/17 11:33:44;;;;;;;0.50;0.50;;;;;;;12.21;77.59;96357.56;5002445;28;20253;-77
2023/02/17 11:36:23;;;;;;;0.50;0.50;;;;;;;11.96;78.60;96365.94;5021598;28;20206;-78
2023/02/17 11:38:48;;;;;;;0.60;0.60;;;;;;;11.82;79.56;96367.94;5024463;28;20174;-79
2023/02/17 11:41:13;;;;;;;0.60;0.60;;;;;;;12.03;77.86;96369.63;5012997;28;20214;-79
2023/02/17 11:43:53;;;;;;;0.53;0.53;;;;;;;12.06;77.55;96349.34;5012561;28;20214;-79
2023/02/17 11:46:21;;;;;;;0.50;0.50;;;;;;;12.11;77.25;96364.56;5006034;28;20182;-79
2023/02/17 11:49:25;;;;;;;0.50;0.50;;;;;;;12.43;76.71;96374.69;5021952;28;20624;-80